sensor_id;sensor_type;location;lat;lon;timestamp;temperature;humidity
23556;DHT22;11956;53.184;8.578;2023-03-14T00:02:44;11.20;99.90
23556;DHT22;11956;53.184;8.578;2023-03-14T00:05:45;11.10;99.90
23556;DHT22;11956;53.184;8.578;2023-03-14T00:08:46;11.10;99.90
23556;DHT22;11956;53.184;8.578;2023-03-14T00:11:47;11.10;99.90
23556;DHT22;11956;53.184;8.578;2023-03-14T00:14:48;11.10;99.90
23556;DHT22;11956;53.184;8.578;2023-03-14T00:17:49;11.10;99.90
23556;DHT22;11956;53.184;8.578;2023-03-14T00:20:50;11.10;99.90
23556;DHT22;11956;53.184;8.578;2023-03-14T00:23:51;11.10;99.90
23556;DHT22;11956;53.184;8.578;2023-03-14T00:26:52;11.20;99.90
23556;DHT22;11956;53.184;8.578;2023-03-14T00:29:53;11.20;99.90
23556;DHT22;11956;53.184;8.578;2023-03-14T00:32:55;11.20;99.90
23556;DHT22;11956;53.184;8.578;2023-03-14T00:35:59;11.30;99.90
23556;DHT22;11956;53.184;8.578;2023-03-14T00:39:03;11.30;99.90
23556;DHT22;11956;53.184;8.578;2023-03-14T00:42:05;11.40;99.90
23556;DHT22;11956;53.184;8.578;2023-03-14T00:45:07;11.40;99.90
23556;DHT22;11956;53.184;8.578;2023-03-14T00:48:09;11.40;99.90
23556;DHT22;11956;53.184;8.578;2023-03-14T00:51:10;11.40;99.90
23556;DHT22;11956;53.184;8.578;2023-03-14T00:54:18;11.40;99.90
23556;DHT22;11956;53.184;8.578;2023-03-14T00:57:20;11.40;99.90
23556;DHT22;11956;53.184;8.578;2023-03-14T01:00:21;11.40;99.90
23556;DHT22;11956;53.184;8.578;2023-03-14T01:03:22;11.40;99.90
23556;DHT22;11956;53.184;8.578;2023-03-14T01:06:27;11.50;99.90
23556;DHT22;11956;53.184;8.578;2023-03-14T01:09:28;11.50;99.90
23556;DHT22;11956;53.184;8.578;2023-03-14T01:12:29;11.50;99.90
23556;DHT22;11956;53.184;8.578;2023-03-14T01:15:35;11.50;99.90
23556;DHT22;11956;53.184;8.578;2023-03-14T01:18:38;11.50;99.90
23556;DHT22;11956;53.184;8.578;2023-03-14T01:21:41;11.50;99.90
23556;DHT22;11956;53.184;8.578;2023-03-14T01:24:42;11.50;99.90
23556;DHT22;11956;53.184;8.578;2023-03-14T01:27:43;11.60;99.90
23556;DHT22;11956;53.184;8.578;2023-03-14T01:30:44;11.60;99.90
23556;DHT22;11956;53.184;8.578;2023-03-14T01:33:47;11.60;99.90
23556;DHT22;11956;53.184;8.578;2023-03-14T01:36:48;11.60;99.90
23556;DHT22;11956;53.184;8.578;2023-03-14T01:39:49;11.60;99.90
23556;DHT22;11956;53.184;8.578;2023-03-14T01:42:57;11.60;99.90
23556;DHT22;11956;53.184;8.578;2023-03-14T01:52:21;11.60;99.90
23556;DHT22;11956;53.184;8.578;2023-03-14T01:55:25;11.60;99.90
23556;DHT22;11956;53.184;8.578;2023-03-14T01:58:27;11.70;99.90
23556;DHT22;11956;53.184;8.578;2023-03-14T02:01:32;11.70;99.90
23556;DHT22;11956;53.184;8.578;2023-03-14T02:04:37;11.60;99.90
23556;DHT22;11956;53.184;8.578;2023-03-14T02:07:54;11.60;99.90
23556;DHT22;11956;53.184;8.578;2023-03-14T02:11:01;11.60;99.90
23556;DHT22;11956;53.184;8.578;2023-03-14T02:14:37;11.50;99.90
23556;DHT22;11956;53.184;8.578;2023-03-14T02:17:52;11.60;99.90
23556;DHT22;11956;53.184;8.578;2023-03-14T02:24:35;11.60;99.90
23556;DHT22;11956;53.184;8.578;2023-03-14T02:27:48;11.60;99.90
23556;DHT22;11956;53.184;8.578;2023-03-14T02:30:49;11.70;99.90
23556;DHT22;11956;53.184;8.578;2023-03-14T02:33:51;11.70;99.90
23556;DHT22;11956;53.184;8.578;2023-03-14T02:36:52;11.80;99.90
23556;DHT22;11956;53.184;8.578;2023-03-14T02:39:53;11.80;99.90
23556;DHT22;11956;53.184;8.578;2023-03-14T02:42:54;11.80;99.90
23556;DHT22;11956;53.184;8.578;2023-03-14T02:45:56;11.80;99.90
23556;DHT22;11956;53.184;8.578;2023-03-14T02:48:58;11.80;99.90
23556;DHT22;11956;53.184;8.578;2023-03-14T02:52:11;11.80;99.90
23556;DHT22;11956;53.184;8.578;2023-03-14T02:55:12;11.80;99.90
23556;DHT22;11956;53.184;8.578;2023-03-14T02:58:17;11.90;99.90
23556;DHT22;11956;53.184;8.578;2023-03-14T03:01:21;11.90;99.90
23556;DHT22;11956;53.184;8.578;2023-03-14T03:04:22;11.80;99.90
23556;DHT22;11956;53.184;8.578;2023-03-14T03:07:23;11.60;99.90
23556;DHT22;11956;53.184;8.578;2023-03-14T03:10:25;11.40;99.90
23556;DHT22;11956;53.184;8.578;2023-03-14T03:13:26;11.20;99.90
23556;DHT22;11956;53.184;8.578;2023-03-14T03:16:29;11.20;99.90
23556;DHT22;11956;53.184;8.578;2023-03-14T03:19:31;11.10;99.90
23556;DHT22;11956;53.184;8.578;2023-03-14T03:22:32;11.00;99.90
23556;DHT22;11956;53.184;8.578;2023-03-14T03:25:33;11.00;99.90
23556;DHT22;11956;53.184;8.578;2023-03-14T03:28:38;10.90;99.90
23556;DHT22;11956;53.184;8.578;2023-03-14T03:31:39;10.90;99.90
23556;DHT22;11956;53.184;8.578;2023-03-14T03:34:40;10.80;99.90
23556;DHT22;11956;53.184;8.578;2023-03-14T03:37:41;10.70;99.90
23556;DHT22;11956;53.184;8.578;2023-03-14T03:40:43;10.60;99.90
23556;DHT22;11956;53.184;8.578;2023-03-14T03:43:45;10.40;99.90
23556;DHT22;11956;53.184;8.578;2023-03-14T03:46:49;10.30;99.90
23556;DHT22;11956;53.184;8.578;2023-03-14T03:49:50;10.20;99.90
23556;DHT22;11956;53.184;8.578;2023-03-14T03:52:51;10.10;99.90
23556;DHT22;11956;53.184;8.578;2023-03-14T03:55:52;9.90;99.90
23556;DHT22;11956;53.184;8.578;2023-03-14T03:58:53;9.80;99.90
23556;DHT22;11956;53.184;8.578;2023-03-14T04:01:54;9.80;99.90
23556;DHT22;11956;53.184;8.578;2023-03-14T04:04:55;9.70;99.90
23556;DHT22;11956;53.184;8.578;2023-03-14T04:07:56;9.70;99.90
23556;DHT22;11956;53.184;8.578;2023-03-14T04:11:02;9.70;99.90
23556;DHT22;11956;53.184;8.578;2023-03-14T04:14:21;9.70;99.90
23556;DHT22;11956;53.184;8.578;2023-03-14T04:17:27;9.70;99.90
23556;DHT22;11956;53.184;8.578;2023-03-14T04:20:28;9.80;99.90
23556;DHT22;11956;53.184;8.578;2023-03-14T04:23:29;9.80;99.90
23556;DHT22;11956;53.184;8.578;2023-03-14T04:26:30;9.80;99.90
23556;DHT22;11956;53.184;8.578;2023-03-14T04:29:31;9.80;99.90
23556;DHT22;11956;53.184;8.578;2023-03-14T04:32:32;9.90;99.90
23556;DHT22;11956;53.184;8.578;2023-03-14T04:35:34;9.90;99.90
23556;DHT22;11956;53.184;8.578;2023-03-14T04:38:42;9.90;99.90
23556;DHT22;11956;53.184;8.578;2023-03-14T04:41:44;9.90;99.90
23556;DHT22;11956;53.184;8.578;2023-03-14T04:44:46;9.90;99.90
23556;DHT22;11956;53.184;8.578;2023-03-14T04:47:50;9.90;99.90
23556;DHT22;11956;53.184;8.578;2023-03-14T04:50:54;10.00;99.90
23556;DHT22;11956;53.184;8.578;2023-03-14T04:53:55;10.00;99.90
23556;DHT22;11956;53.184;8.578;2023-03-14T04:56:57;10.10;99.90
23556;DHT22;11956;53.184;8.578;2023-03-14T04:59:59;10.10;99.90
23556;DHT22;11956;53.184;8.578;2023-03-14T05:03:29;10.10;99.90
23556;DHT22;11956;53.184;8.578;2023-03-14T05:06:41;10.10;99.90
23556;DHT22;11956;53.184;8.578;2023-03-14T05:10:03;10.20;99.90
23556;DHT22;11956;53.184;8.578;2023-03-14T05:13:37;10.10;99.90
23556;DHT22;11956;53.184;8.578;2023-03-14T05:16:54;10.10;99.90
23556;DHT22;11956;53.184;8.578;2023-03-14T05:20:08;10.10;99.90
23556;DHT22;11956;53.184;8.578;2023-03-14T05:23:29;10.00;99.90
23556;DHT22;11956;53.184;8.578;2023-03-14T05:26:49;10.00;99.90
23556;DHT22;11956;53.184;8.578;2023-03-14T05:30:05;9.90;99.90
23556;DHT22;11956;53.184;8.578;2023-03-14T05:33:31;10.00;99.90
23556;DHT22;11956;53.184;8.578;2023-03-14T05:36:43;10.00;99.90
23556;DHT22;11956;53.184;8.578;2023-03-14T05:40:08;10.10;99.90
23556;DHT22;11956;53.184;8.578;2023-03-14T05:43:16;10.10;99.90
23556;DHT22;11956;53.184;8.578;2023-03-14T05:46:33;10.10;99.90
23556;DHT22;11956;53.184;8.578;2023-03-14T05:49:48;10.10;99.90
23556;DHT22;11956;53.184;8.578;2023-03-14T05:53:11;10.20;99.90
23556;DHT22;11956;53.184;8.578;2023-03-14T05:56:24;10.20;99.90
23556;DHT22;11956;53.184;8.578;2023-03-14T05:59:31;10.20;99.90
23556;DHT22;11956;53.184;8.578;2023-03-14T06:03:11;10.30;99.90
23556;DHT22;11956;53.184;8.578;2023-03-14T06:06:17;10.40;99.90
23556;DHT22;11956;53.184;8.578;2023-03-14T06:09:18;10.40;99.90
23556;DHT22;11956;53.184;8.578;2023-03-14T06:12:21;10.50;99.90
23556;DHT22;11956;53.184;8.578;2023-03-14T06:15:22;10.50;99.90
23556;DHT22;11956;53.184;8.578;2023-03-14T06:18:25;10.50;99.90
23556;DHT22;11956;53.184;8.578;2023-03-14T06:21:28;10.50;99.90
23556;DHT22;11956;53.184;8.578;2023-03-14T06:24:29;10.60;99.90
23556;DHT22;11956;53.184;8.578;2023-03-14T06:27:30;10.60;99.90
23556;DHT22;11956;53.184;8.578;2023-03-14T06:30:32;10.60;99.90
23556;DHT22;11956;53.184;8.578;2023-03-14T06:33:33;10.60;99.90
23556;DHT22;11956;53.184;8.578;2023-03-14T06:36:35;10.50;99.90
23556;DHT22;11956;53.184;8.578;2023-03-14T06:39:37;10.30;99.90
23556;DHT22;11956;53.184;8.578;2023-03-14T06:42:48;10.30;99.90
23556;DHT22;11956;53.184;8.578;2023-03-14T06:45:50;10.20;99.90
23556;DHT22;11956;53.184;8.578;2023-03-14T06:48:51;10.30;99.90
23556;DHT22;11956;53.184;8.578;2023-03-14T06:51:53;10.20;99.90
23556;DHT22;11956;53.184;8.578;2023-03-14T06:54:54;10.30;99.90
23556;DHT22;11956;53.184;8.578;2023-03-14T06:57:57;10.40;99.90
23556;DHT22;11956;53.184;8.578;2023-03-14T07:00:58;10.50;99.90
23556;DHT22;11956;53.184;8.578;2023-03-14T07:04:04;10.60;99.90
23556;DHT22;11956;53.184;8.578;2023-03-14T07:07:08;10.70;99.90
23556;DHT22;11956;53.184;8.578;2023-03-14T07:26:35;11.70;99.90
23556;DHT22;11956;53.184;8.578;2023-03-14T07:29:36;11.60;99.90
23556;DHT22;11956;53.184;8.578;2023-03-14T07:32:38;11.60;99.90
23556;DHT22;11956;53.184;8.578;2023-03-14T07:35:39;11.60;99.90
23556;DHT22;11956;53.184;8.578;2023-03-14T07:38:41;11.60;99.90
23556;DHT22;11956;53.184;8.578;2023-03-14T07:42:00;11.50;99.90
23556;DHT22;11956;53.184;8.578;2023-03-14T07:45:01;11.60;99.90
23556;DHT22;11956;53.184;8.578;2023-03-14T07:48:03;11.60;99.90
23556;DHT22;11956;53.184;8.578;2023-03-14T07:51:04;11.70;99.90
23556;DHT22;11956;53.184;8.578;2023-03-14T07:54:05;11.70;99.90
23556;DHT22;11956;53.184;8.578;2023-03-14T07:57:06;11.60;99.90
23556;DHT22;11956;53.184;8.578;2023-03-14T08:00:08;11.40;99.90
23556;DHT22;11956;53.184;8.578;2023-03-14T08:03:13;11.20;99.90
23556;DHT22;11956;53.184;8.578;2023-03-14T08:06:14;11.10;99.90
23556;DHT22;11956;53.184;8.578;2023-03-14T08:09:16;11.10;99.90
23556;DHT22;11956;53.184;8.578;2023-03-14T08:12:16;11.10;99.90
23556;DHT22;11956;53.184;8.578;2023-03-14T08:15:17;11.00;99.90
23556;DHT22;11956;53.184;8.578;2023-03-14T08:18:18;11.00;99.90
23556;DHT22;11956;53.184;8.578;2023-03-14T08:21:19;11.10;99.90
23556;DHT22;11956;53.184;8.578;2023-03-14T08:24:20;11.20;99.90
23556;DHT22;11956;53.184;8.578;2023-03-14T08:27:21;11.20;99.90
23556;DHT22;11956;53.184;8.578;2023-03-14T08:30:22;11.20;99.90
23556;DHT22;11956;53.184;8.578;2023-03-14T08:33:25;11.20;99.90
23556;DHT22;11956;53.184;8.578;2023-03-14T08:36:27;11.30;99.90
23556;DHT22;11956;53.184;8.578;2023-03-14T08:39:28;11.20;99.90
23556;DHT22;11956;53.184;8.578;2023-03-14T08:42:28;11.10;99.90
23556;DHT22;11956;53.184;8.578;2023-03-14T08:45:29;11.10;99.90
23556;DHT22;11956;53.184;8.578;2023-03-14T08:48:30;11.00;99.90
23556;DHT22;11956;53.184;8.578;2023-03-14T08:51:31;10.90;99.90
23556;DHT22;11956;53.184;8.578;2023-03-14T08:54:32;10.00;99.90
23556;DHT22;11956;53.184;8.578;2023-03-14T08:57:33;8.50;99.90
23556;DHT22;11956;53.184;8.578;2023-03-14T09:00:34;7.40;99.90
23556;DHT22;11956;53.184;8.578;2023-03-14T09:03:35;6.80;99.90
23556;DHT22;11956;53.184;8.578;2023-03-14T09:06:36;6.60;99.90
23556;DHT22;11956;53.184;8.578;2023-03-14T09:09:37;6.40;99.90
23556;DHT22;11956;53.184;8.578;2023-03-14T09:12:38;6.10;99.90
23556;DHT22;11956;53.184;8.578;2023-03-14T09:15:39;6.00;99.90
23556;DHT22;11956;53.184;8.578;2023-03-14T09:18:42;6.00;99.90
23556;DHT22;11956;53.184;8.578;2023-03-14T09:21:43;5.80;99.90
23556;DHT22;11956;53.184;8.578;2023-03-14T09:24:44;5.60;99.90
23556;DHT22;11956;53.184;8.578;2023-03-14T09:27:45;5.20;99.90
23556;DHT22;11956;53.184;8.578;2023-03-14T09:30:46;5.00;99.90
23556;DHT22;11956;53.184;8.578;2023-03-14T09:33:47;4.70;99.90
23556;DHT22;11956;53.184;8.578;2023-03-14T09:36:48;4.20;99.90
23556;DHT22;11956;53.184;8.578;2023-03-14T09:39:48;3.90;99.90
23556;DHT22;11956;53.184;8.578;2023-03-14T09:42:54;3.70;99.90
23556;DHT22;11956;53.184;8.578;2023-03-14T09:45:56;3.70;99.90
23556;DHT22;11956;53.184;8.578;2023-03-14T09:48:59;3.60;99.90
23556;DHT22;11956;53.184;8.578;2023-03-14T09:52:02;3.60;99.90
23556;DHT22;11956;53.184;8.578;2023-03-14T09:55:14;3.60;99.90
23556;DHT22;11956;53.184;8.578;2023-03-14T09:58:20;3.70;99.90
23556;DHT22;11956;53.184;8.578;2023-03-14T10:01:26;3.80;99.90
23556;DHT22;11956;53.184;8.578;2023-03-14T10:04:29;3.80;99.90
23556;DHT22;11956;53.184;8.578;2023-03-14T10:07:31;3.90;99.90
23556;DHT22;11956;53.184;8.578;2023-03-14T10:10:33;4.00;99.90
23556;DHT22;11956;53.184;8.578;2023-03-14T10:13:34;4.10;99.90
23556;DHT22;11956;53.184;8.578;2023-03-14T10:16:45;4.20;99.90
23556;DHT22;11956;53.184;8.578;2023-03-14T10:20:29;4.20;99.90
23556;DHT22;11956;53.184;8.578;2023-03-14T10:23:34;4.30;99.90
23556;DHT22;11956;53.184;8.578;2023-03-14T10:26:35;4.40;99.90
23556;DHT22;11956;53.184;8.578;2023-03-14T10:29:55;4.50;99.90
23556;DHT22;11956;53.184;8.578;2023-03-14T10:33:08;4.40;99.90
23556;DHT22;11956;53.184;8.578;2023-03-14T10:36:23;4.50;99.90
23556;DHT22;11956;53.184;8.578;2023-03-14T10:39:46;4.60;99.90
23556;DHT22;11956;53.184;8.578;2023-03-14T10:42:48;4.70;99.90
23556;DHT22;11956;53.184;8.578;2023-03-14T10:45:54;4.60;99.90
23556;DHT22;11956;53.184;8.578;2023-03-14T10:49:06;4.60;99.90
23556;DHT22;11956;53.184;8.578;2023-03-14T10:55:20;4.70;99.90
23556;DHT22;11956;53.184;8.578;2023-03-14T10:58:27;4.80;99.90
23556;DHT22;11956;53.184;8.578;2023-03-14T11:01:37;5.10;99.90
23556;DHT22;11956;53.184;8.578;2023-03-14T11:12:42;5.40;99.90
23556;DHT22;11956;53.184;8.578;2023-03-14T11:16:09;5.50;99.90
23556;DHT22;11956;53.184;8.578;2023-03-14T11:22:46;6.00;99.90
23556;DHT22;11956;53.184;8.578;2023-03-14T11:26:18;6.20;99.90
23556;DHT22;11956;53.184;8.578;2023-03-14T11:29:41;6.50;99.90
23556;DHT22;11956;53.184;8.578;2023-03-14T11:36:07;6.80;99.90
23556;DHT22;11956;53.184;8.578;2023-03-14T11:39:14;6.50;99.90
23556;DHT22;11956;53.184;8.578;2023-03-14T11:42:17;6.30;99.90
23556;DHT22;11956;53.184;8.578;2023-03-14T11:45:22;6.30;99.90
23556;DHT22;11956;53.184;8.578;2023-03-14T11:52:20;6.90;99.90
23556;DHT22;11956;53.184;8.578;2023-03-14T11:58:33;7.00;99.90
23556;DHT22;11956;53.184;8.578;2023-03-14T12:01:55;6.90;99.90
23556;DHT22;11956;53.184;8.578;2023-03-14T12:08:50;6.80;99.90
23556;DHT22;11956;53.184;8.578;2023-03-14T12:11:57;6.60;99.90
23556;DHT22;11956;53.184;8.578;2023-03-14T12:15:01;6.70;99.90
23556;DHT22;11956;53.184;8.578;2023-03-14T12:18:03;6.70;99.90
23556;DHT22;11956;53.184;8.578;2023-03-14T12:21:07;6.80;99.90
23556;DHT22;11956;53.184;8.578;2023-03-14T12:24:18;6.90;99.90
23556;DHT22;11956;53.184;8.578;2023-03-14T12:27:43;7.10;99.90
23556;DHT22;11956;53.184;8.578;2023-03-14T12:30:46;7.30;99.90
23556;DHT22;11956;53.184;8.578;2023-03-14T12:33:47;7.10;99.90
23556;DHT22;11956;53.184;8.578;2023-03-14T12:40:04;7.40;99.90
23556;DHT22;11956;53.184;8.578;2023-03-14T12:46:33;7.60;99.90
23556;DHT22;11956;53.184;8.578;2023-03-14T12:49:35;7.60;99.90
23556;DHT22;11956;53.184;8.578;2023-03-14T12:59:54;7.50;99.90
23556;DHT22;11956;53.184;8.578;2023-03-14T13:03:15;7.50;99.90
23556;DHT22;11956;53.184;8.578;2023-03-14T13:06:55;7.40;99.90
23556;DHT22;11956;53.184;8.578;2023-03-14T13:13:25;7.00;99.90
23556;DHT22;11956;53.184;8.578;2023-03-14T13:16:27;7.10;99.90
23556;DHT22;11956;53.184;8.578;2023-03-14T13:19:30;7.00;99.90
23556;DHT22;11956;53.184;8.578;2023-03-14T13:22:34;7.10;99.90
23556;DHT22;11956;53.184;8.578;2023-03-14T13:25:37;7.30;99.90
23556;DHT22;11956;53.184;8.578;2023-03-14T13:28:38;7.40;99.90
23556;DHT22;11956;53.184;8.578;2023-03-14T13:31:44;7.20;99.90
23556;DHT22;11956;53.184;8.578;2023-03-14T13:34:46;7.10;99.90
23556;DHT22;11956;53.184;8.578;2023-03-14T13:37:56;7.20;99.90
23556;DHT22;11956;53.184;8.578;2023-03-14T13:41:04;7.10;99.90
23556;DHT22;11956;53.184;8.578;2023-03-14T13:44:09;7.20;99.90
23556;DHT22;11956;53.184;8.578;2023-03-14T13:47:17;7.20;99.90
23556;DHT22;11956;53.184;8.578;2023-03-14T13:50:19;7.30;99.90
23556;DHT22;11956;53.184;8.578;2023-03-14T13:53:20;7.30;99.90
23556;DHT22;11956;53.184;8.578;2023-03-14T13:56:23;7.20;99.90
23556;DHT22;11956;53.184;8.578;2023-03-14T13:59:27;7.20;99.90
23556;DHT22;11956;53.184;8.578;2023-03-14T14:02:30;7.40;99.90
23556;DHT22;11956;53.184;8.578;2023-03-14T14:05:32;7.50;99.90
23556;DHT22;11956;53.184;8.578;2023-03-14T14:08:34;7.40;99.90
23556;DHT22;11956;53.184;8.578;2023-03-14T14:11:42;7.10;99.90
23556;DHT22;11956;53.184;8.578;2023-03-14T14:15:06;6.90;99.90
23556;DHT22;11956;53.184;8.578;2023-03-14T14:18:14;6.80;99.90
23556;DHT22;11956;53.184;8.578;2023-03-14T14:21:17;6.70;99.90
23556;DHT22;11956;53.184;8.578;2023-03-14T14:24:31;6.60;99.90
23556;DHT22;11956;53.184;8.578;2023-03-14T14:27:37;6.50;99.90
23556;DHT22;11956;53.184;8.578;2023-03-14T14:30:39;6.60;99.90
23556;DHT22;11956;53.184;8.578;2023-03-14T14:33:42;6.80;99.90
23556;DHT22;11956;53.184;8.578;2023-03-14T14:36:45;6.90;99.90
23556;DHT22;11956;53.184;8.578;2023-03-14T14:39:53;7.00;99.90
23556;DHT22;11956;53.184;8.578;2023-03-14T14:43:04;7.30;99.90
23556;DHT22;11956;53.184;8.578;2023-03-14T14:46:07;7.30;99.90
23556;DHT22;11956;53.184;8.578;2023-03-14T14:49:18;7.20;99.90
23556;DHT22;11956;53.184;8.578;2023-03-14T14:52:30;7.20;99.90
23556;DHT22;11956;53.184;8.578;2023-03-14T14:55:42;7.10;99.90
23556;DHT22;11956;53.184;8.578;2023-03-14T14:58:46;7.10;99.90
23556;DHT22;11956;53.184;8.578;2023-03-14T15:01:48;7.00;99.90
23556;DHT22;11956;53.184;8.578;2023-03-14T15:04:51;6.90;99.90
23556;DHT22;11956;53.184;8.578;2023-03-14T15:07:52;6.90;99.90
23556;DHT22;11956;53.184;8.578;2023-03-14T15:10:54;7.10;99.90
23556;DHT22;11956;53.184;8.578;2023-03-14T15:13:56;7.20;99.90
23556;DHT22;11956;53.184;8.578;2023-03-14T15:16:57;7.20;99.90
23556;DHT22;11956;53.184;8.578;2023-03-14T15:19:57;7.20;99.90
23556;DHT22;11956;53.184;8.578;2023-03-14T15:22:59;7.20;99.90
23556;DHT22;11956;53.184;8.578;2023-03-14T15:25:59;7.10;99.90
23556;DHT22;11956;53.184;8.578;2023-03-14T15:29:00;7.10;99.90
23556;DHT22;11956;53.184;8.578;2023-03-14T15:32:01;7.00;99.90
23556;DHT22;11956;53.184;8.578;2023-03-14T15:35:02;7.00;99.90
23556;DHT22;11956;53.184;8.578;2023-03-14T15:38:04;7.00;99.90
23556;DHT22;11956;53.184;8.578;2023-03-14T15:41:05;7.00;99.90
23556;DHT22;11956;53.184;8.578;2023-03-14T15:44:06;6.90;99.90
23556;DHT22;11956;53.184;8.578;2023-03-14T15:47:09;6.90;99.90
23556;DHT22;11956;53.184;8.578;2023-03-14T15:50:11;6.70;99.90
23556;DHT22;11956;53.184;8.578;2023-03-14T15:53:12;6.70;99.90
23556;DHT22;11956;53.184;8.578;2023-03-14T15:56:17;6.70;99.90
23556;DHT22;11956;53.184;8.578;2023-03-14T15:59:19;6.60;99.90
23556;DHT22;11956;53.184;8.578;2023-03-14T16:02:19;6.60;99.90
23556;DHT22;11956;53.184;8.578;2023-03-14T16:05:21;6.60;99.90
23556;DHT22;11956;53.184;8.578;2023-03-14T16:08:23;6.70;99.90
23556;DHT22;11956;53.184;8.578;2023-03-14T16:11:26;6.60;99.90
23556;DHT22;11956;53.184;8.578;2023-03-14T16:14:27;6.60;99.90
23556;DHT22;11956;53.184;8.578;2023-03-14T16:17:27;6.60;99.90
23556;DHT22;11956;53.184;8.578;2023-03-14T16:20:28;6.60;99.90
23556;DHT22;11956;53.184;8.578;2023-03-14T16:23:29;6.60;99.90
23556;DHT22;11956;53.184;8.578;2023-03-14T16:26:30;6.50;99.90
23556;DHT22;11956;53.184;8.578;2023-03-14T16:29:34;6.50;99.90
23556;DHT22;11956;53.184;8.578;2023-03-14T16:32:35;6.50;99.90
23556;DHT22;11956;53.184;8.578;2023-03-14T16:35:36;6.50;99.90
23556;DHT22;11956;53.184;8.578;2023-03-14T16:38:39;6.40;99.90
23556;DHT22;11956;53.184;8.578;2023-03-14T16:41:41;6.30;99.90
23556;DHT22;11956;53.184;8.578;2023-03-14T16:44:42;6.20;99.90
23556;DHT22;11956;53.184;8.578;2023-03-14T16:47:43;6.20;99.90
23556;DHT22;11956;53.184;8.578;2023-03-14T16:50:44;6.10;99.90
23556;DHT22;11956;53.184;8.578;2023-03-14T16:53:45;5.30;99.90
23556;DHT22;11956;53.184;8.578;2023-03-14T16:56:46;4.80;99.90
23556;DHT22;11956;53.184;8.578;2023-03-14T16:59:48;4.50;99.90
23556;DHT22;11956;53.184;8.578;2023-03-14T17:02:50;4.40;99.90
23556;DHT22;11956;53.184;8.578;2023-03-14T17:05:51;4.40;99.90
23556;DHT22;11956;53.184;8.578;2023-03-14T17:08:53;4.40;99.90
23556;DHT22;11956;53.184;8.578;2023-03-14T17:11:55;4.40;99.90
23556;DHT22;11956;53.184;8.578;2023-03-14T17:14:58;4.40;99.90
23556;DHT22;11956;53.184;8.578;2023-03-14T17:17:59;4.40;99.90
23556;DHT22;11956;53.184;8.578;2023-03-14T17:21:03;4.50;99.90
23556;DHT22;11956;53.184;8.578;2023-03-14T17:24:04;4.50;99.90
23556;DHT22;11956;53.184;8.578;2023-03-14T17:27:05;4.50;99.90
23556;DHT22;11956;53.184;8.578;2023-03-14T17:30:07;4.50;99.90
23556;DHT22;11956;53.184;8.578;2023-03-14T17:33:11;4.40;99.90
23556;DHT22;11956;53.184;8.578;2023-03-14T17:36:12;4.40;99.90
23556;DHT22;11956;53.184;8.578;2023-03-14T17:39:13;4.40;99.90
23556;DHT22;11956;53.184;8.578;2023-03-14T17:42:14;4.40;99.90
23556;DHT22;11956;53.184;8.578;2023-03-14T17:45:15;4.40;99.90
23556;DHT22;11956;53.184;8.578;2023-03-14T17:48:17;4.40;99.90
23556;DHT22;11956;53.184;8.578;2023-03-14T17:51:18;4.30;99.90
23556;DHT22;11956;53.184;8.578;2023-03-14T17:54:20;4.30;99.90
23556;DHT22;11956;53.184;8.578;2023-03-14T17:57:22;4.20;99.90
23556;DHT22;11956;53.184;8.578;2023-03-14T18:00:24;4.10;99.90
23556;DHT22;11956;53.184;8.578;2023-03-14T18:03:25;4.00;99.90
23556;DHT22;11956;53.184;8.578;2023-03-14T18:06:27;3.90;99.90
23556;DHT22;11956;53.184;8.578;2023-03-14T18:09:30;3.80;99.90
23556;DHT22;11956;53.184;8.578;2023-03-14T18:12:32;3.80;99.90
23556;DHT22;11956;53.184;8.578;2023-03-14T18:15:33;3.70;99.90
23556;DHT22;11956;53.184;8.578;2023-03-14T18:18:35;3.60;99.90
23556;DHT22;11956;53.184;8.578;2023-03-14T18:21:36;3.60;99.90
23556;DHT22;11956;53.184;8.578;2023-03-14T18:24:41;3.60;99.90
23556;DHT22;11956;53.184;8.578;2023-03-14T18:27:42;3.50;99.90
23556;DHT22;11956;53.184;8.578;2023-03-14T18:30:43;3.50;99.90
23556;DHT22;11956;53.184;8.578;2023-03-14T18:33:51;3.50;99.90
23556;DHT22;11956;53.184;8.578;2023-03-14T18:36:55;3.40;99.90
23556;DHT22;11956;53.184;8.578;2023-03-14T18:39:55;3.40;99.90
23556;DHT22;11956;53.184;8.578;2023-03-14T18:42:56;3.40;99.90
23556;DHT22;11956;53.184;8.578;2023-03-14T18:45:58;3.30;99.90
23556;DHT22;11956;53.184;8.578;2023-03-14T18:48:59;3.30;99.90
23556;DHT22;11956;53.184;8.578;2023-03-14T18:52:03;3.30;99.90
23556;DHT22;11956;53.184;8.578;2023-03-14T18:55:05;3.20;99.90
23556;DHT22;11956;53.184;8.578;2023-03-14T18:58:06;3.20;99.90
23556;DHT22;11956;53.184;8.578;2023-03-14T19:01:07;3.20;99.90
23556;DHT22;11956;53.184;8.578;2023-03-14T19:04:08;3.10;99.90
23556;DHT22;11956;53.184;8.578;2023-03-14T19:07:09;3.10;99.90
23556;DHT22;11956;53.184;8.578;2023-03-14T19:10:13;3.10;99.90
23556;DHT22;11956;53.184;8.578;2023-03-14T19:13:14;3.10;99.90
23556;DHT22;11956;53.184;8.578;2023-03-14T19:16:15;3.00;99.90
23556;DHT22;11956;53.184;8.578;2023-03-14T19:19:16;2.90;99.90
23556;DHT22;11956;53.184;8.578;2023-03-14T19:22:16;2.90;99.90
23556;DHT22;11956;53.184;8.578;2023-03-14T19:25:17;3.00;99.90
23556;DHT22;11956;53.184;8.578;2023-03-14T19:28:19;3.00;99.90
23556;DHT22;11956;53.184;8.578;2023-03-14T19:31:20;3.00;99.90
23556;DHT22;11956;53.184;8.578;2023-03-14T19:34:21;3.00;99.90
23556;DHT22;11956;53.184;8.578;2023-03-14T19:37:22;3.00;99.90
23556;DHT22;11956;53.184;8.578;2023-03-14T19:40:23;3.10;99.90
23556;DHT22;11956;53.184;8.578;2023-03-14T19:43:24;3.00;99.90
23556;DHT22;11956;53.184;8.578;2023-03-14T19:46:26;3.00;99.90
23556;DHT22;11956;53.184;8.578;2023-03-14T19:49:26;3.00;99.90
23556;DHT22;11956;53.184;8.578;2023-03-14T19:52:28;3.00;99.90
23556;DHT22;11956;53.184;8.578;2023-03-14T19:55:29;2.90;99.90
23556;DHT22;11956;53.184;8.578;2023-03-14T19:58:34;2.90;99.90
23556;DHT22;11956;53.184;8.578;2023-03-14T20:01:35;2.90;99.90
23556;DHT22;11956;53.184;8.578;2023-03-14T20:04:36;2.90;99.90
23556;DHT22;11956;53.184;8.578;2023-03-14T20:07:36;2.80;99.90
23556;DHT22;11956;53.184;8.578;2023-03-14T20:10:37;2.80;99.90
23556;DHT22;11956;53.184;8.578;2023-03-14T20:13:38;2.80;99.90
23556;DHT22;11956;53.184;8.578;2023-03-14T20:16:39;2.70;99.90
23556;DHT22;11956;53.184;8.578;2023-03-14T20:19:40;2.70;99.90
23556;DHT22;11956;53.184;8.578;2023-03-14T20:22:43;2.70;99.90
23556;DHT22;11956;53.184;8.578;2023-03-14T20:25:52;2.80;99.90
23556;DHT22;11956;53.184;8.578;2023-03-14T20:28:56;2.90;99.90
23556;DHT22;11956;53.184;8.578;2023-03-14T20:31:57;3.00;99.90
23556;DHT22;11956;53.184;8.578;2023-03-14T20:34:58;2.90;99.90
23556;DHT22;11956;53.184;8.578;2023-03-14T20:38:01;2.90;99.90
23556;DHT22;11956;53.184;8.578;2023-03-14T20:41:03;2.80;99.90
23556;DHT22;11956;53.184;8.578;2023-03-14T20:44:04;2.70;99.90
23556;DHT22;11956;53.184;8.578;2023-03-14T20:47:08;2.70;99.90
23556;DHT22;11956;53.184;8.578;2023-03-14T20:50:10;2.60;99.90